Time;durP1;ratioP1;P1;durP2;ratioP2;P2;SDS_P1;SDS_P2;PMS_P1;PMS_P2;Temp;Humidity;BMP_temperature;BMP_pressure;BME280_temperature;BME280_humidity;BME280_pressure;Samples;Min_cycle;Max_cycle;Signal;HPM_P1;HPM_P2
2021/01/26 00:01:22;;;;;;;8.13;5.50;;;-0.70;99.90;;;;;;4740774;30;20062;-78
2021/01/26 00:03:54;;;;;;;8.35;6.15;;;-0.70;99.90;;;;;;4734512;30;20532;-78
2021/01/26 00:06:25;;;;;;;9.55;6.03;;;-0.70;99.90;;;;;;4749866;30;20048;-78
2021/01/26 00:08:56;;;;;;;8.35;5.57;;;-0.70;99.90;;;;;;4735628;30;20416;-78
2021/01/26 00:11:27;;;;;;;9.65;6.88;;;-0.80;99.90;;;;;;4749071;30;20052;-78
2021/01/26 00:13:58;;;;;;;8.73;5.95;;;-0.70;99.90;;;;;;4735712;30;20055;-78
2021/01/26 00:16:30;;;;;;;8.65;6.57;;;-0.70;99.90;;;;;;4749697;30;20143;-78
2021/01/26 00:19:01;;;;;;;8.98;6.20;;;-0.70;99.90;;;;;;4735410;30;20056;-78
2021/01/26 00:21:32;;;;;;;8.23;6.15;;;-0.70;99.90;;;;;;4750868;30;20539;-78
2021/01/26 00:23:58;;;;;;;8.88;6.10;;;-0.70;99.90;;;;;;4734702;30;20155;-78
2021/01/26 00:26:29;;;;;;;8.88;6.22;;;-0.70;99.90;;;;;;4735708;30;20052;-78
2021/01/26 00:29:01;;;;;;;9.10;6.55;;;-0.80;99.90;;;;;;4748993;30;20052;-78
2021/01/26 00:31:32;;;;;;;10.82;6.85;;;-0.70;99.90;;;;;;4735368;30;20055;-78
2021/01/26 00:34:03;;;;;;;9.18;6.57;;;-0.80;99.90;;;;;;4735261;30;20062;-78
2021/01/26 00:36:35;;;;;;;9.43;6.40;;;-0.70;99.90;;;;;;4749263;30;20052;-79
2021/01/26 00:39:06;;;;;;;7.82;6.18;;;-0.70;99.90;;;;;;4735119;30;20054;-78
2021/01/26 00:41:37;;;;;;;9.27;6.47;;;-0.80;99.90;;;;;;4749091;30;20052;-78
2021/01/26 00:44:09;;;;;;;9.52;6.85;;;-0.80;99.90;;;;;;4749218;30;20048;-79
2021/01/26 00:46:40;;;;;;;11.75;7.38;;;-0.70;99.90;;;;;;4749112;30;20048;-78
2021/01/26 00:49:11;;;;;;;10.88;6.95;;;-0.80;99.90;;;;;;4734882;30;20052;-78
2021/01/26 00:51:43;;;;;;;10.27;7.22;;;-0.80;99.90;;;;;;4735144;30;20135;-78
2021/01/26 00:54:14;;;;;;;10.18;6.97;;;-0.80;99.90;;;;;;4735148;30;20112;-78
2021/01/26 00:56:46;;;;;;;11.40;7.93;;;-0.90;99.90;;;;;;4748921;30;20452;-78
2021/01/26 00:59:18;;;;;;;12.27;7.80;;;-0.80;99.90;;;;;;4734832;30;20054;-79
2021/01/26 01:01:55;;;;;;;10.68;7.28;;;-0.90;99.90;;;;;;4735559;30;20052;-78
2021/01/26 01:04:26;;;;;;;13.20;7.18;;;-0.80;99.90;;;;;;4748527;30;20054;-79
2021/01/26 01:06:57;;;;;;;12.00;7.85;;;-0.80;99.90;;;;;;4734914;30;20493;-78
2021/01/26 01:09:28;;;;;;;11.85;7.53;;;-0.80;99.90;;;;;;4748893;30;20048;-79
2021/01/26 01:12:00;;;;;;;11.18;7.30;;;-0.80;99.90;;;;;;4735101;30;20056;-78
2021/01/26 01:14:31;;;;;;;13.50;7.97;;;-0.80;99.90;;;;;;4734889;30;20440;-79
2021/01/26 01:17:02;;;;;;;12.07;7.60;;;-0.80;99.90;;;;;;4749002;30;20059;-79
2021/01/26 01:19:34;;;;;;;11.52;7.90;;;-0.80;99.90;;;;;;4748961;30;20060;-78
2021/01/26 01:22:05;;;;;;;12.85;9.10;;;-0.90;99.90;;;;;;4734767;30;20048;-78
2021/01/26 01:24:36;;;;;;;11.95;7.10;;;-0.90;99.90;;;;;;4734176;30;20052;-79
2021/01/26 01:27:07;;;;;;;11.18;7.38;;;-0.90;99.90;;;;;;4735098;30;20497;-78
2021/01/26 01:29:34;;;;;;;11.55;7.32;;;-0.80;99.90;;;;;;4734139;30;20501;-79
2021/01/26 01:32:05;;;;;;;11.95;7.22;;;-0.90;99.90;;;;;;4748880;30;20044;-78
2021/01/26 01:34:31;;;;;;;10.73;7.25;;;-0.90;99.90;;;;;;4748705;30;20052;-78
2021/01/26 01:36:57;;;;;;;11.57;7.55;;;-0.90;99.90;;;;;;4734053;30;20056;-79
2021/01/26 01:39:29;;;;;;;12.52;8.07;;;-0.80;99.90;;;;;;4748474;30;20059;-78
2021/01/26 01:42:06;;;;;;;10.75;7.35;;;-0.80;99.90;;;;;;4734680;30;20058;-79
2021/01/26 01:44:38;;;;;;;12.20;7.88;;;-0.80;99.90;;;;;;4748930;30;20056;-78
2021/01/26 01:47:15;;;;;;;13.20;7.93;;;-0.90;99.90;;;;;;4734883;30;20049;-79
2021/01/26 01:49:47;;;;;;;12.35;7.53;;;-0.90;99.90;;;;;;4748740;30;20052;-78
2021/01/26 01:52:26;;;;;;;13.38;7.55;;;-0.90;99.90;;;;;;4734477;30;20048;-79
2021/01/26 01:55:06;;;;;;;10.93;7.28;;;-1.00;99.90;;;;;;4734699;30;20052;-78
2021/01/26 01:57:44;;;;;;;13.55;7.85;;;-1.00;99.90;;;;;;4749747;30;20056;-79
2021/01/26 02:00:17;;;;;;;12.95;8.40;;;-1.00;99.90;;;;;;4734280;30;20152;-79
2021/01/26 02:03:03;;;;;;;10.85;5.97;;;-1.00;99.90;;;;;;4734287;30;20056;-78
2021/01/26 02:05:29;;;;;;;12.73;8.15;;;-1.00;99.90;;;;;;4733566;30;20044;-79
2021/01/26 02:08:00;;;;;;;13.07;8.32;;;-1.10;99.90;;;;;;4734159;30;20054;-79
2021/01/26 02:10:31;;;;;;;13.02;8.43;;;-1.10;99.90;;;;;;4734465;30;20054;-79
2021/01/26 02:13:03;;;;;;;14.25;8.52;;;-1.10;99.90;;;;;;4734406;30;20052;-79
2021/01/26 02:15:34;;;;;;;15.05;9.45;;;-1.10;99.90;;;;;;4748259;30;20052;-79
2021/01/26 02:18:14;;;;;;;14.15;8.60;;;-1.10;99.90;;;;;;4748330;30;20052;-78
2021/01/26 02:21:11;;;;;;;14.27;9.10;;;-1.10;99.90;;;;;;4748126;30;20056;-78
2021/01/26 02:24:20;;;;;;;12.57;8.70;;;-1.10;99.90;;;;;;4747821;30;20048;-79
2021/01/26 02:27:13;;;;;;;13.55;8.65;;;-1.00;99.90;;;;;;4733855;30;20080;-79
2021/01/26 02:30:18;;;;;;;15.63;9.48;;;-1.00;99.90;;;;;;4747445;30;20058;-79
2021/01/26 02:33:12;;;;;;;12.35;8.05;;;-1.00;99.90;;;;;;4733749;30;20075;-79
2021/01/26 02:35:55;;;;;;;10.77;6.65;;;-1.00;99.90;;;;;;4735770;30;20147;-79
2021/01/26 02:38:54;;;;;;;17.63;9.80;;;-1.10;99.90;;;;;;4737012;30;20052;-79
2021/01/26 02:41:37;;;;;;;12.90;8.23;;;-1.00;99.90;;;;;;4751367;30;20059;-78
2021/01/26 02:44:28;;;;;;;13.75;8.35;;;-1.10;99.90;;;;;;4736891;30;20059;-79
2021/01/26 02:47:24;;;;;;;13.05;8.85;;;-1.10;99.90;;;;;;4751284;30;20054;-79
2021/01/26 02:50:32;;;;;;;13.50;8.07;;;-1.20;99.90;;;;;;4750984;30;20148;-78
2021/01/26 02:53:33;;;;;;;12.05;7.57;;;-1.20;99.90;;;;;;4751084;30;20045;-79
2021/01/26 02:56:20;;;;;;;14.20;8.20;;;-1.30;99.90;;;;;;4736901;30;20062;-79
2021/01/26 02:59:00;;;;;;;12.82;8.07;;;-1.30;99.90;;;;;;4751024;30;20320;-79
2021/01/26 03:01:46;;;;;;;12.98;8.13;;;-1.30;99.90;;;;;;4736949;30;20067;-79
2021/01/26 03:04:24;;;;;;;13.25;8.07;;;-1.30;99.90;;;;;;4736107;30;20535;-79
2021/01/26 03:07:00;;;;;;;12.13;8.23;;;-1.30;99.90;;;;;;4736796;30;20050;-79
2021/01/26 03:09:36;;;;;;;12.52;8.32;;;-1.30;99.90;;;;;;4736502;30;20048;-79
2021/01/26 03:12:15;;;;;;;12.80;7.70;;;-1.30;99.90;;;;;;4736569;30;20166;-79
2021/01/26 03:15:12;;;;;;;12.80;7.40;;;-1.30;99.90;;;;;;4750835;30;20048;-79
2021/01/26 03:17:47;;;;;;;15.02;7.90;;;-1.30;99.90;;;;;;4731113;30;20067;-79
2021/01/26 03:20:24;;;;;;;14.57;8.02;;;-1.30;99.90;;;;;;4751764;30;20131;-79
2021/01/26 03:22:53;;;;;;;14.13;8.57;;;-1.30;99.90;;;;;;4736101;30;20074;-79
2021/01/26 03:25:26;;;;;;;12.75;8.25;;;-1.30;99.90;;;;;;4750682;30;20053;-79
2021/01/26 03:28:00;;;;;;;10.48;6.60;;;-1.30;99.90;;;;;;4736428;30;20048;-79
2021/01/26 03:30:35;;;;;;;14.35;8.73;;;-1.40;99.90;;;;;;4736443;30;20048;-79
2021/01/26 03:33:12;;;;;;;11.98;7.82;;;-1.40;99.90;;;;;;4736284;30;20044;-79
2021/01/26 03:35:38;;;;;;;15.45;9.15;;;-1.40;99.90;;;;;;4735879;30;20497;-79
2021/01/26 03:38:18;;;;;;;13.13;7.78;;;-1.30;99.90;;;;;;4750213;30;20048;-78
2021/01/26 03:40:51;;;;;;;12.45;8.00;;;-1.30;99.90;;;;;;4736258;30;20079;-79
2021/01/26 03:43:23;;;;;;;10.63;6.25;;;-1.30;99.90;;;;;;4736141;30;20056;-78
2021/01/26 03:46:17;;;;;;;11.43;7.63;;;-1.30;99.90;;;;;;4749323;30;20063;-79
2021/01/26 03:49:06;;;;;;;13.32;7.80;;;-1.30;99.90;;;;;;4704566;30;20048;-79
2021/01/26 03:52:15;;;;;;;10.98;7.13;;;-1.30;99.90;;;;;;4750232;30;20052;-78
2021/01/26 03:54:58;;;;;;;11.60;7.28;;;-1.30;99.90;;;;;;4736156;30;20052;-79
2021/01/26 03:57:47;;;;;;;11.73;6.82;;;-1.40;99.90;;;;;;4750130;30;20063;-78
2021/01/26 04:00:49;;;;;;;12.20;7.68;;;-1.40;99.90;;;;;;4735708;30;20424;-78
2021/01/26 04:03:38;;;;;;;11.50;6.85;;;-1.40;99.90;;;;;;4735679;30;20056;-78
2021/01/26 04:06:25;;;;;;;9.30;6.05;;;-1.40;99.90;;;;;;4749827;30;20055;-79
2021/01/26 04:09:01;;;;;;;9.88;6.60;;;-1.40;99.90;;;;;;4749844;30;20102;-78
2021/01/26 04:11:46;;;;;;;9.35;6.63;;;-1.40;99.90;;;;;;4735633;30;20052;-79
2021/01/26 04:14:34;;;;;;;10.52;6.63;;;-1.40;99.90;;;;;;4750903;30;20052;-79
2021/01/26 04:17:15;;;;;;;10.07;6.50;;;-1.40;99.90;;;;;;4735789;30;20119;-79
2021/01/26 04:19:54;;;;;;;10.88;7.30;;;-1.40;99.90;;;;;;4735425;30;20428;-78
2021/01/26 04:22:26;;;;;;;12.00;6.97;;;-1.40;99.90;;;;;;4735716;30;20580;-79
2021/01/26 04:24:57;;;;;;;11.68;7.55;;;-1.40;99.90;;;;;;4749628;30;20056;-78
2021/01/26 04:27:28;;;;;;;12.75;7.85;;;-1.50;99.90;;;;;;4749879;30;20044;-79
2021/01/26 04:29:59;;;;;;;14.52;7.75;;;-1.50;99.90;;;;;;4736331;30;20054;-77
2021/01/26 04:32:31;;;;;;;12.55;7.70;;;-1.50;99.90;;;;;;4735243;30;20143;-77
2021/01/26 04:34:57;;;;;;;12.82;7.07;;;-1.50;99.90;;;;;;4734456;30;20143;-77
2021/01/26 04:37:23;;;;;;;12.57;7.40;;;-1.60;99.90;;;;;;4734600;30;20059;-77
2021/01/26 04:39:54;;;;;;;11.57;6.97;;;-1.60;99.90;;;;;;4749024;30;20071;-77
2021/01/26 04:42:26;;;;;;;12.50;7.88;;;-1.50;99.90;;;;;;4734677;30;20064;-77
2021/01/26 04:45:12;;;;;;;12.15;6.97;;;-1.50;99.90;;;;;;4735016;30;20052;-77
2021/01/26 04:48:06;;;;;;;10.50;6.88;;;-1.50;99.90;;;;;;4734181;30;20408;-77
2021/01/26 04:51:17;;;;;;;13.77;8.15;;;-1.50;99.90;;;;;;4734336;30;20147;-77
2021/01/26 04:53:54;;;;;;;12.65;7.10;;;-1.50;99.90;;;;;;4722257;30;20600;-77
2021/01/26 04:56:38;;;;;;;12.43;7.38;;;-1.50;99.90;;;;;;4748825;30;20056;-77
2021/01/26 04:59:38;;;;;;;12.55;6.68;;;-1.50;99.90;;;;;;4748625;30;20110;-77
2021/01/26 05:02:15;;;;;;;11.15;6.70;;;-1.50;99.90;;;;;;4727813;30;20135;-77
2021/01/26 05:04:57;;;;;;;10.32;6.55;;;-1.50;99.90;;;;;;4734671;30;20052;-77
2021/01/26 05:07:44;;;;;;;11.57;7.10;;;-1.50;99.90;;;;;;4734789;30;20076;-78
2021/01/26 05:10:41;;;;;;;12.32;6.68;;;-1.60;99.90;;;;;;4734557;30;20048;-77
2021/01/26 05:13:25;;;;;;;11.00;7.63;;;-1.60;99.90;;;;;;4734656;30;20131;-77
2021/01/26 05:16:03;;;;;;;10.32;6.53;;;-1.60;99.90;;;;;;4733982;30;20076;-77
2021/01/26 05:18:49;;;;;;;11.65;7.15;;;-1.60;99.90;;;;;;4734523;30;20053;-77
2021/01/26 05:21:45;;;;;;;10.75;6.45;;;-1.60;99.90;;;;;;4748579;30;20048;-77
2021/01/26 05:24:37;;;;;;;10.77;6.60;;;-1.60;99.90;;;;;;4700025;30;20121;-77
2021/01/26 05:27:04;;;;;;;10.70;5.90;;;-1.60;99.90;;;;;;4730101;30;20080;-76
2021/01/26 05:29:31;;;;;;;13.23;6.10;;;-1.60;99.90;;;;;;4729693;30;20055;-77
2021/01/26 05:32:05;;;;;;;10.18;6.60;;;-1.60;99.90;;;;;;4716190;30;20063;-77
2021/01/26 05:34:38;;;;;;;10.77;6.45;;;-1.60;99.90;;;;;;4730124;30;20057;-77
2021/01/26 05:37:13;;;;;;;9.40;5.90;;;-1.50;99.90;;;;;;4730517;30;20055;-77
2021/01/26 05:40:18;;;;;;;9.98;5.70;;;-1.60;99.90;;;;;;4729376;30;20083;-77
2021/01/26 05:42:56;;;;;;;10.13;6.22;;;-1.60;99.90;;;;;;4715242;30;20513;-77
2021/01/26 05:45:41;;;;;;;11.50;6.72;;;-1.60;99.90;;;;;;4715894;30;20135;-77
2021/01/26 05:48:16;;;;;;;9.23;5.90;;;-1.50;99.90;;;;;;4715638;30;20063;-77
2021/01/26 05:50:49;;;;;;;11.32;6.30;;;-1.60;99.90;;;;;;4729990;30;20542;-77
2021/01/26 05:53:31;;;;;;;9.63;6.18;;;-1.60;99.90;;;;;;4716331;30;20152;-77
2021/01/26 05:56:10;;;;;;;11.57;6.50;;;-1.50;99.90;;;;;;4729769;30;20104;-77
2021/01/26 05:58:44;;;;;;;8.15;5.45;;;-1.50;99.90;;;;;;4715945;30;20425;-77
2021/01/26 06:01:29;;;;;;;9.27;5.80;;;-1.60;99.90;;;;;;4729857;30;20053;-77
2021/01/26 06:04:16;;;;;;;12.70;5.90;;;-1.50;99.90;;;;;;4728909;30;20165;-77
2021/01/26 06:07:00;;;;;;;11.27;6.43;;;-1.50;99.90;;;;;;4729386;30;20139;-77
2021/01/26 06:09:27;;;;;;;7.50;5.40;;;-1.60;99.90;;;;;;4736585;30;20139;-77
2021/01/26 06:12:04;;;;;;;9.43;5.82;;;-1.60;99.90;;;;;;4748358;30;20047;-77
2021/01/26 06:14:31;;;;;;;9.27;6.00;;;-1.60;99.90;;;;;;4753465;30;20087;-76
2021/01/26 06:17:11;;;;;;;8.43;5.18;;;-1.60;99.90;;;;;;4753367;30;20487;-78
2021/01/26 06:19:42;;;;;;;7.47;4.82;;;-1.60;99.90;;;;;;4755346;30;20052;-78
2021/01/26 06:22:24;;;;;;;8.68;4.75;;;-1.50;99.90;;;;;;4744829;30;20139;-77
2021/01/26 06:24:58;;;;;;;7.30;4.85;;;-1.50;99.90;;;;;;4733704;30;20049;-76
2021/01/26 06:27:45;;;;;;;9.23;5.40;;;-1.50;99.90;;;;;;4743338;30;20119;-77
2021/01/26 06:30:40;;;;;;;7.35;5.03;;;-1.50;99.90;;;;;;4736121;30;20051;-77
2021/01/26 06:33:32;;;;;;;9.63;5.78;;;-1.40;99.90;;;;;;4749874;30;20436;-77
2021/01/26 06:36:43;;;;;;;7.75;4.93;;;-1.50;99.90;;;;;;4749983;30;20054;-77
2021/01/26 06:39:26;;;;;;;8.13;5.00;;;-1.50;99.90;;;;;;4728205;30;20056;-76
2021/01/26 06:42:25;;;;;;;9.10;4.70;;;-1.40;99.90;;;;;;4735891;30;20501;-76
2021/01/26 06:45:08;;;;;;;8.93;4.20;;;-1.40;99.90;;;;;;4749555;30;20044;-77
2021/01/26 06:47:56;;;;;;;8.98;4.75;;;-1.40;99.90;;;;;;4748316;30;20048;-78
2021/01/26 06:51:02;;;;;;;8.70;4.57;;;-1.40;99.90;;;;;;4734242;30;20048;-76
2021/01/26 06:53:59;;;;;;;6.72;4.20;;;-1.30;99.90;;;;;;4749673;30;20048;-76
2021/01/26 06:56:55;;;;;;;6.05;4.22;;;-1.30;99.90;;;;;;4749626;30;20060;-77
2021/01/26 07:00:08;;;;;;;7.55;3.53;;;-1.30;99.90;;;;;;4735376;30;20058;-76
2021/01/26 07:03:04;;;;;;;8.02;4.30;;;-1.30;99.90;;;;;;4749427;30;20062;-77
2021/01/26 07:06:07;;;;;;;6.82;3.42;;;-1.30;99.90;;;;;;4749422;30;20043;-77
2021/01/26 07:08:59;;;;;;;6.00;3.28;;;-1.20;99.90;;;;;;4751943;30;20047;-76
2021/01/26 07:11:30;;;;;;;5.88;3.42;;;-1.20;99.90;;;;;;4742812;30;20048;-77
2021/01/26 07:13:59;;;;;;;4.85;3.30;;;-1.30;99.90;;;;;;4749054;30;20785;-79
2021/01/26 07:16:40;;;;;;;6.43;3.55;;;-1.20;99.90;;;;;;4749830;30;20047;-78
2021/01/26 07:19:27;;;;;;;6.88;4.07;;;-1.20;99.90;;;;;;4752475;30;20638;-78
2021/01/26 07:22:29;;;;;;;10.13;5.05;;;-1.20;99.90;;;;;;4730784;30;20725;-78
2021/01/26 07:25:29;;;;;;;7.78;4.97;;;-1.20;99.90;;;;;;4730902;30;20160;-78
2021/01/26 07:28:03;;;;;;;;;;;-1.20;99.90;;;;;;4731366;30;20489;-78
2021/01/26 07:30:38;;;;;;;6.25;3.92;;;-1.20;99.90;;;;;;4731595;30;19926;-78
2021/01/26 07:33:16;;;;;;;7.80;3.83;;;-1.20;99.90;;;;;;4731147;30;20129;-78
2021/01/26 07:36:06;;;;;;;6.22;4.00;;;-1.20;99.90;;;;;;4742484;30;20138;-78
2021/01/26 07:39:04;;;;;;;7.40;3.97;;;-1.20;99.90;;;;;;4734333;30;20580;-78
2021/01/26 07:42:11;;;;;;;4.85;3.20;;;-1.20;99.90;;;;;;4748467;30;20155;-77
2021/01/26 07:45:03;;;;;;;8.00;3.60;;;-1.20;99.90;;;;;;4734442;30;20131;-78
2021/01/26 07:47:38;;;;;;;6.78;3.15;;;-1.20;99.90;;;;;;4734263;30;20278;-77
2021/01/26 07:50:18;;;;;;;4.78;3.17;;;-1.20;99.90;;;;;;4750127;30;20054;-77
2021/01/26 07:52:58;;;;;;;7.68;3.80;;;-1.20;99.90;;;;;;4765996;30;20051;-77
2021/01/26 07:55:46;;;;;;;5.10;3.70;;;-1.20;99.90;;;;;;4752064;30;20105;-77
2021/01/26 07:58:14;;;;;;;4.97;3.35;;;-1.20;99.90;;;;;;4733562;30;20441;-77
2021/01/26 08:00:50;;;;;;;6.13;3.45;;;-1.20;99.90;;;;;;4747649;30;20131;-77
2021/01/26 08:03:22;;;;;;;5.20;3.83;;;-1.20;99.90;;;;;;4734017;30;20102;-77
2021/01/26 08:05:56;;;;;;;8.30;3.20;;;-1.20;99.90;;;;;;4747776;30;20139;-78
2021/01/26 08:08:31;;;;;;;5.93;3.92;;;-1.20;99.90;;;;;;4733187;30;20056;-78
2021/01/26 08:11:21;;;;;;;6.47;3.88;;;-1.20;99.90;;;;;;4747902;30;20058;-78
2021/01/26 08:14:08;;;;;;;6.82;4.18;;;-1.20;99.90;;;;;;4746901;30;20051;-79
2021/01/26 08:17:00;;;;;;;5.65;3.30;;;-1.20;99.90;;;;;;4748354;30;20063;-79
2021/01/26 08:19:36;;;;;;;6.97;3.90;;;-1.20;99.90;;;;;;4748371;30;20155;-78
2021/01/26 08:22:20;;;;;;;5.80;4.03;;;-1.10;99.90;;;;;;4753176;30;20147;-78
2021/01/26 08:25:07;;;;;;;6.95;3.33;;;-1.10;99.90;;;;;;4765928;30;20058;-79
2021/01/26 08:27:38;;;;;;;6.32;3.72;;;-1.00;99.90;;;;;;4744363;30;20044;-78
2021/01/26 08:30:12;;;;;;;9.00;3.45;;;-1.00;99.90;;;;;;4733037;30;20052;-78
2021/01/26 08:32:38;;;;;;;5.65;3.70;;;-1.00;99.90;;;;;;4733080;30;20488;-78
2021/01/26 08:35:07;;;;;;;5.95;3.95;;;-1.00;99.90;;;;;;4748005;30;20052;-78
2021/01/26 08:37:41;;;;;;;4.95;3.40;;;-1.10;99.90;;;;;;4747562;30;20416;-78
2021/01/26 08:40:41;;;;;;;7.07;4.47;;;-1.10;99.90;;;;;;4747297;30;20071;-78
2021/01/26 08:43:48;;;;;;;5.20;3.55;;;-1.10;99.90;;;;;;4735413;30;20140;-79
2021/01/26 08:46:39;;;;;;;7.53;4.20;;;-1.10;99.90;;;;;;4749145;30;20055;-79
2021/01/26 08:49:32;;;;;;;6.13;4.13;;;-1.10;99.90;;;;;;4749002;30;20045;-78
2021/01/26 08:52:22;;;;;;;5.50;3.90;;;-1.00;99.90;;;;;;4748685;30;20055;-79
2021/01/26 08:54:55;;;;;;;6.57;4.30;;;-1.00;99.90;;;;;;4735089;30;20424;-79
2021/01/26 08:57:27;;;;;;;5.45;3.55;;;-1.00;99.90;;;;;;4736126;30;20143;-78
2021/01/26 08:59:58;;;;;;;5.65;3.72;;;-1.00;99.90;;;;;;4737966;30;20821;-79
2021/01/26 09:02:41;;;;;;;6.03;4.00;;;-1.00;99.90;;;;;;4729087;30;20406;-78
2021/01/26 09:05:35;;;;;;;3.50;2.92;;;-1.00;99.90;;;;;;4749251;30;20052;-79
2021/01/26 09:08:07;;;;;;;6.88;3.72;;;-1.00;99.90;;;;;;4734262;30;20143;-78
2021/01/26 09:10:47;;;;;;;6.60;3.97;;;-1.00;99.90;;;;;;4749819;30;20052;-78
2021/01/26 09:13:33;;;;;;;8.45;4.50;;;-1.00;99.90;;;;;;4736616;30;20147;-78
2021/01/26 09:16:15;;;;;;;6.60;4.20;;;-1.00;99.90;;;;;;4751422;30;20093;-79
2021/01/26 09:18:57;;;;;;;7.05;3.63;;;-1.00;99.90;;;;;;4751496;30;20124;-79
2021/01/26 09:21:33;;;;;;;8.57;4.45;;;-0.90;99.90;;;;;;4754876;30;20054;-79
2021/01/26 09:24:04;;;;;;;6.88;4.38;;;-1.00;99.90;;;;;;4768993;30;20407;-79
2021/01/26 09:26:36;;;;;;;8.27;4.70;;;-0.90;99.90;;;;;;4754704;30;20070;-79
2021/01/26 09:29:02;;;;;;;7.30;4.68;;;-0.90;99.90;;;;;;4768570;30;20059;-78
2021/01/26 09:31:33;;;;;;;7.60;4.25;;;-0.80;99.90;;;;;;4754519;30;20147;-79
2021/01/26 09:34:07;;;;;;;6.25;4.28;;;-0.80;99.90;;;;;;4768203;30;20058;-78
2021/01/26 09:36:38;;;;;;;6.75;4.03;;;-0.80;99.90;;;;;;4754113;30;20048;-79
2021/01/26 09:39:10;;;;;;;6.80;4.35;;;-0.80;99.90;;;;;;4768404;30;20404;-79
2021/01/26 09:41:41;;;;;;;6.68;4.43;;;-0.80;99.90;;;;;;4768524;30;20079;-79
2021/01/26 09:44:19;;;;;;;8.70;4.22;;;-0.80;99.90;;;;;;4768636;30;20060;-79
2021/01/26 09:46:59;;;;;;;8.50;5.10;;;-0.70;99.90;;;;;;4771678;30;20048;-79
2021/01/26 09:49:31;;;;;;;9.27;4.95;;;-0.70;99.90;;;;;;4771643;30;20052;-78
2021/01/26 09:52:16;;;;;;;6.70;4.50;;;-0.60;99.90;;;;;;4747717;30;20143;-79
2021/01/26 09:55:01;;;;;;;7.40;5.25;;;-0.40;99.90;;;;;;4739833;30;20109;-78
2021/01/26 09:57:33;;;;;;;6.97;4.60;;;-0.40;99.90;;;;;;4739883;30;20142;-78
2021/01/26 10:00:02;;;;;;;7.10;4.40;;;-0.40;99.90;;;;;;4739648;30;20504;-78
2021/01/26 10:02:34;;;;;;;8.05;4.82;;;-0.40;99.90;;;;;;4740393;30;20052;-79
2021/01/26 10:05:11;;;;;;;7.75;4.93;;;-0.30;99.90;;;;;;4741003;30;20517;-78
2021/01/26 10:08:20;;;;;;;9.95;5.38;;;-0.30;99.90;;;;;;4736317;30;20040;-79
2021/01/26 10:11:27;;;;;;;6.35;4.07;;;-0.30;99.90;;;;;;4750203;30;20045;-78
2021/01/26 10:14:24;;;;;;;10.20;4.88;;;-0.20;99.90;;;;;;4754185;30;20416;-78
2021/01/26 10:16:59;;;;;;;8.40;4.50;;;-0.30;99.90;;;;;;4754088;30;20052;-78
2021/01/26 10:19:33;;;;;;;11.60;4.60;;;-0.30;99.90;;;;;;4753880;30;20052;-78
2021/01/26 10:22:13;;;;;;;7.53;4.47;;;-0.20;99.90;;;;;;4753719;30;20060;-78
2021/01/26 10:24:45;;;;;;;12.93;5.13;;;-0.20;99.90;;;;;;4739514;30;20056;-78
2021/01/26 10:27:22;;;;;;;10.40;4.78;;;-0.10;99.90;;;;;;4753784;30;20052;-78
2021/01/26 10:30:13;;;;;;;10.40;4.80;;;-0.10;99.90;;;;;;4739293;30;20114;-78
2021/01/26 10:32:46;;;;;;;8.95;4.93;;;-0.10;99.90;;;;;;4752018;30;20151;-78
2021/01/26 10:35:35;;;;;;;10.35;5.10;;;-0.20;99.90;;;;;;4761440;30;20398;-79
2021/01/26 10:38:30;;;;;;;7.53;4.57;;;-0.10;99.90;;;;;;4768958;30;20050;-78
2021/01/26 10:41:08;;;;;;;8.40;5.03;;;0.00;99.90;;;;;;4741112;30;20056;-78
2021/01/26 10:43:40;;;;;;;8.10;3.97;;;0.00;99.90;;;;;;4749919;30;20044;-78
2021/01/26 10:46:12;;;;;;;8.27;4.93;;;0.00;99.90;;;;;;4749443;30;20431;-78
2021/01/26 10:48:43;;;;;;;12.15;5.22;;;0.00;99.90;;;;;;4736288;30;20044;-78
2021/01/26 10:51:26;;;;;;;9.70;4.72;;;-0.10;99.90;;;;;;4749982;30;20054;-78
2021/01/26 10:53:52;;;;;;;9.23;4.72;;;-0.10;99.90;;;;;;4731502;30;20059;-78
2021/01/26 10:56:23;;;;;;;7.80;4.70;;;0.00;99.90;;;;;;4730759;30;20063;-79
2021/01/26 10:58:54;;;;;;;9.52;5.38;;;-0.10;99.90;;;;;;4732795;30;20144;-79
2021/01/26 11:01:26;;;;;;;10.88;5.05;;;-0.10;99.90;;;;;;4733035;30;20088;-78
2021/01/26 11:03:59;;;;;;;9.38;4.55;;;-0.10;99.90;;;;;;4733236;30;20071;-79
2021/01/26 11:06:30;;;;;;;9.80;5.05;;;0.10;99.90;;;;;;4718857;30;20068;-79
2021/01/26 11:09:04;;;;;;;8.15;4.68;;;0.00;99.90;;;;;;4732712;30;20067;-79
2021/01/26 11:11:36;;;;;;;9.07;4.97;;;0.00;99.90;;;;;;4747018;30;20143;-78
2021/01/26 11:14:08;;;;;;;8.02;4.75;;;0.10;99.90;;;;;;4750918;30;20044;-79
2021/01/26 11:16:39;;;;;;;8.68;5.35;;;0.20;99.90;;;;;;4750408;30;20054;-79
2021/01/26 11:19:11;;;;;;;12.13;5.05;;;0.20;99.90;;;;;;4732280;30;20074;-78
2021/01/26 11:21:37;;;;;;;7.47;4.40;;;0.10;99.90;;;;;;4732879;30;20063;-79
2021/01/26 11:24:10;;;;;;;8.52;5.32;;;0.10;99.90;;;;;;4717260;30;20056;-78
2021/01/26 11:26:41;;;;;;;8.50;4.38;;;0.10;99.90;;;;;;4731267;30;20048;-79
2021/01/26 11:29:07;;;;;;;7.38;4.40;;;0.10;99.90;;;;;;4717484;30;20502;-78
2021/01/26 11:31:38;;;;;;;8.85;4.75;;;0.10;99.90;;;;;;4731944;30;20494;-78
2021/01/26 11:34:10;;;;;;;7.10;4.47;;;0.20;99.90;;;;;;4718158;30;20433;-78
2021/01/26 11:36:41;;;;;;;8.70;4.53;;;0.20;99.90;;;;;;4731799;30;20525;-78
2021/01/26 11:39:12;;;;;;;7.88;4.72;;;0.20;99.90;;;;;;4717298;30;20063;-78
2021/01/26 11:41:43;;;;;;;9.70;4.50;;;0.10;99.90;;;;;;4750217;30;20076;-78
2021/01/26 11:44:10;;;;;;;5.53;3.92;;;0.10;99.90;;;;;;4763780;30;20056;-78
2021/01/26 11:46:41;;;;;;;5.03;3.53;;;0.10;99.90;;;;;;4731448;30;20048;-78
2021/01/26 11:49:08;;;;;;;9.70;4.68;;;0.10;99.90;;;;;;4749093;30;20125;-78
2021/01/26 11:51:39;;;;;;;8.13;4.03;;;0.10;99.90;;;;;;4749824;30;20040;-78
2021/01/26 11:54:11;;;;;;;8.23;4.35;;;0.20;99.90;;;;;;4734635;30;20044;-78
2021/01/26 11:56:42;;;;;;;7.68;3.80;;;0.20;99.90;;;;;;4748943;30;20059;-78
2021/01/26 11:59:13;;;;;;;6.57;3.70;;;0.20;99.90;;;;;;4748809;30;20059;-78
2021/01/26 12:01:44;;;;;;;7.75;4.10;;;0.20;99.90;;;;;;4734967;30;20419;-77
2021/01/26 12:04:16;;;;;;;9.48;3.95;;;0.20;99.90;;;;;;4735050;30;20059;-76
2021/01/26 12:06:47;;;;;;;7.63;4.45;;;0.20;99.90;;;;;;4747545;30;20048;-76
2021/01/26 12:09:14;;;;;;;6.47;3.95;;;0.20;99.90;;;;;;4745388;30;20139;-76
2021/01/26 12:11:45;;;;;;;8.07;3.88;;;0.20;99.90;;;;;;4734366;30;20044;-76
2021/01/26 12:14:17;;;;;;;5.38;3.75;;;0.30;99.90;;;;;;4748659;30;20044;-76
2021/01/26 12:16:48;;;;;;;8.00;3.58;;;0.30;99.90;;;;;;4748451;30;20058;-76
2021/01/26 12:19:15;;;;;;;8.90;3.88;;;0.40;99.90;;;;;;4748107;30;20142;-77
2021/01/26 12:21:46;;;;;;;7.65;4.32;;;0.40;99.90;;;;;;4748691;30;20044;-78
2021/01/26 12:24:17;;;;;;;4.97;3.60;;;0.40;99.90;;;;;;4748320;30;20052;-76
2021/01/26 12:26:43;;;;;;;9.70;4.15;;;0.30;99.90;;;;;;4748569;30;20052;-78
2021/01/26 12:29:14;;;;;;;7.15;3.60;;;0.20;99.90;;;;;;4733920;30;20551;-78
2021/01/26 12:31:45;;;;;;;8.55;4.18;;;0.20;99.90;;;;;;4734426;30;20059;-78
2021/01/26 12:34:17;;;;;;;7.07;4.32;;;0.30;99.90;;;;;;4748597;30;20048;-77
2021/01/26 12:36:50;;;;;;;8.25;4.50;;;0.20;99.90;;;;;;4748426;30;20063;-78
2021/01/26 12:39:21;;;;;;;8.07;4.27;;;0.20;99.90;;;;;;4736532;30;20052;-78
2021/01/26 12:41:52;;;;;;;9.93;3.50;;;0.20;99.90;;;;;;4759577;30;20298;-78
2021/01/26 12:44:24;;;;;;;8.07;4.03;;;0.20;99.90;;;;;;4752148;30;20048;-78
2021/01/26 12:46:55;;;;;;;7.45;4.15;;;0.20;99.90;;;;;;4751895;30;20054;-78
2021/01/26 12:49:22;;;;;;;5.75;3.40;;;0.30;99.90;;;;;;4751053;30;20090;-78
2021/01/26 12:51:54;;;;;;;6.53;4.00;;;0.20;99.90;;;;;;4750936;30;20039;-78
2021/01/26 12:54:25;;;;;;;9.30;3.90;;;0.20;99.90;;;;;;4752238;30;20125;-79
2021/01/26 12:56:56;;;;;;;5.75;3.42;;;0.20;99.90;;;;;;4766424;30;20667;-78
2021/01/26 12:59:27;;;;;;;6.55;3.83;;;0.20;99.90;;;;;;4744387;30;20134;-78
2021/01/26 13:02:00;;;;;;;8.50;4.20;;;0.20;99.90;;;;;;4745146;30;20476;-79
2021/01/26 13:04:31;;;;;;;6.22;3.75;;;0.20;99.90;;;;;;4751031;30;20572;-79
2021/01/26 13:07:03;;;;;;;5.57;3.80;;;0.30;99.90;;;;;;4752044;30;20064;-78
2021/01/26 13:09:34;;;;;;;6.55;3.75;;;0.30;99.90;;;;;;4731505;30;20048;-79
2021/01/26 13:12:09;;;;;;;5.65;3.42;;;0.30;99.90;;;;;;4753142;30;20070;-79
2021/01/26 13:14:40;;;;;;;9.43;3.50;;;0.30;99.90;;;;;;4737500;30;20505;-79
2021/01/26 13:17:12;;;;;;;5.82;3.30;;;0.30;99.90;;;;;;4747808;30;20048;-79
2021/01/26 13:19:43;;;;;;;5.22;3.20;;;0.30;99.90;;;;;;4740652;30;20512;-79
2021/01/26 13:22:32;;;;;;;4.35;3.15;;;0.30;99.90;;;;;;4752875;30;20090;-79
2021/01/26 13:25:05;;;;;;;6.47;3.08;;;0.40;99.90;;;;;;4836606;24;20075;-79
2021/01/26 13:27:37;;;;;;;9.38;3.60;;;0.40;99.90;;;;;;4760795;30;20404;-77
2021/01/26 13:30:10;;;;;;;5.95;3.20;;;0.40;99.90;;;;;;4768622;30;20086;-79
2021/01/26 13:32:42;;;;;;;5.18;3.75;;;0.50;99.90;;;;;;4756438;30;20142;-80
2021/01/26 13:35:11;;;;;;;5.68;3.70;;;0.50;99.90;;;;;;4770291;30;20603;-79
2021/01/26 13:37:42;;;;;;;5.60;4.00;;;0.60;99.90;;;;;;4781416;30;20103;-80
2021/01/26 13:40:14;;;;;;;4.68;3.45;;;0.60;99.90;;;;;;4738483;30;20128;-79
2021/01/26 13:42:46;;;;;;;6.38;3.65;;;0.60;99.90;;;;;;4738559;30;20048;-80